Time;durP1;ratioP1;P1;durP2;ratioP2;P2;SDS_P1;SDS_P2;PMS_P1;PMS_P2;Temp;Humidity;BMP_temperature;BMP_pressure;BME280_temperature;BME280_humidity;BME280_pressure;Samples;Min_cycle;Max_cycle;Signal;HPM_P1;HPM_P2
2023/11/14 00:00:12;;;;;;;0.80;0.80;;;;;;;11.61;59.82;99121.97;5306016;26;20052;-85
2023/11/14 00:02:38;;;;;;;1.73;1.62;;;;;;;11.31;59.81;99113.75;5305892;26;20071;-86
2023/11/14 00:05:03;;;;;;;1.30;1.12;;;;;;;11.53;59.82;99111.03;5306737;26;21306;-85
2023/11/14 00:07:29;;;;;;;0.13;0.13;;;;;;;11.32;59.81;99113.69;5305830;26;20470;-84
2023/11/14 00:09:55;;;;;;;2.08;1.08;;;;;;;11.53;59.82;99114.47;5305675;26;20076;-85
2023/11/14 00:12:20;;;;;;;1.12;1.02;;;;;;;11.33;59.81;99115.38;5324121;26;20057;-85
2023/11/14 00:14:47;;;;;;;0.45;0.45;;;;;;;11.40;59.81;99112.53;5305643;26;20117;-85
2023/11/14 00:17:12;;;;;;;1.00;1.00;;;;;;;11.72;59.83;99098.00;5287516;26;20072;-84
2023/11/14 00:19:39;;;;;;;0.60;0.60;;;;;;;11.92;59.84;99101.37;5305314;26;20163;-84
2023/11/14 00:22:05;;;;;;;0.52;0.52;;;;;;;11.68;59.82;99092.91;5305659;26;20059;-85
2023/11/14 00:24:31;;;;;;;1.65;0.95;;;;;;;11.69;59.83;99097.22;5305909;26;20058;-85
2023/11/14 00:26:56;;;;;;;0.62;0.30;;;;;;;11.49;59.81;99093.84;5307497;26;24018;-84
2023/11/14 00:29:22;;;;;;;3.03;1.42;;;;;;;11.25;59.80;99088.84;5323818;26;20153;-85
2023/11/14 00:31:47;;;;;;;1.33;1.10;;;;;;;11.30;59.80;99091.22;5323845;26;20402;-86
2023/11/14 00:34:14;;;;;;;1.62;1.40;;;;;;;11.34;59.81;99085.78;5324134;26;20330;-86
2023/11/14 00:36:40;;;;;;;2.15;1.37;;;;;;;11.30;59.80;99083.41;5324079;26;20075;-86
2023/11/14 00:39:06;;;;;;;0.68;0.68;;;;;;;11.30;59.81;99063.41;5324132;26;20048;-87
2023/11/14 00:41:31;;;;;;;0.20;0.20;;;;;;;11.22;59.81;99070.75;5324015;26;20095;-86
2023/11/14 00:43:57;;;;;;;0.68;0.68;;;;;;;11.33;59.81;99062.41;5323547;26;28836;-86
2023/11/14 00:46:22;;;;;;;0.00;0.00;;;;;;;11.32;59.81;99058.97;5307302;26;20413;-85
2023/11/14 00:48:47;;;;;;;0.43;0.43;;;;;;;11.24;59.80;99065.47;5318820;26;29220;-85
2023/11/14 00:51:13;;;;;;;0.25;0.25;;;;;;;11.33;59.80;99052.84;5315485;26;34740;-86
2023/11/14 00:53:39;;;;;;;1.30;1.15;;;;;;;11.42;59.81;99053.34;5327288;26;20067;-87
2023/11/14 00:56:04;;;;;;;0.45;0.37;;;;;;;11.72;59.82;99046.69;5307109;26;20066;-86
2023/11/14 00:58:29;;;;;;;0.50;0.50;;;;;;;11.80;59.83;99044.56;5324371;26;20082;-87
2023/11/14 01:00:55;;;;;;;0.95;0.85;;;;;;;11.74;59.83;99051.81;5305395;26;28473;-87
2023/11/14 01:03:22;;;;;;;0.77;0.77;;;;;;;11.62;59.82;99061.09;5306542;26;20092;-88
2023/11/14 01:05:47;;;;;;;2.80;2.33;;;;;;;11.55;59.82;99052.69;5325056;26;20060;-87
2023/11/14 01:08:13;;;;;;;0.30;0.30;;;;;;;11.39;59.81;99054.34;5324504;26;23928;-87
2023/11/14 01:10:38;;;;;;;0.40;0.30;;;;;;;11.52;59.81;99054.59;5306469;26;24310;-88
2023/11/14 01:13:05;;;;;;;1.08;0.88;;;;;;;11.58;59.81;99051.69;5307412;26;20109;-88
2023/11/14 01:15:30;;;;;;;1.77;1.67;;;;;;;11.43;59.80;99055.87;5307108;26;20035;-87
2023/11/14 01:17:56;;;;;;;0.50;0.32;;;;;;;11.31;59.81;99057.28;5307127;26;20072;-88
2023/11/14 01:20:22;;;;;;;1.75;1.48;;;;;;;11.39;59.81;99054.34;5325356;26;20092;-89
2023/11/14 01:22:47;;;;;;;0.70;0.70;;;;;;;11.49;59.81;99049.53;5310076;26;20115;-89
2023/11/14 01:25:12;;;;;;;0.30;0.30;;;;;;;11.57;59.82;99031.75;5307298;26;20111;-89
2023/11/14 01:27:40;;;;;;;0.75;0.75;;;;;;;11.62;59.82;99008.97;5307152;26;20075;-87
2023/11/14 01:30:07;;;;;;;0.20;0.20;;;;;;;11.71;59.83;99024.16;5307309;26;20044;-89
2023/11/14 01:32:32;;;;;;;0.45;0.45;;;;;;;11.58;59.81;99023.03;5307357;26;20080;-88
2023/11/14 01:34:58;;;;;;;5.47;2.97;;;;;;;11.66;59.82;99026.97;5307148;26;20082;-89
2023/11/14 01:37:23;;;;;;;0.37;0.37;;;;;;;11.93;59.84;99032.66;5306788;26;30678;-89
2023/11/14 01:39:48;;;;;;;3.55;0.43;;;;;;;11.55;59.82;99028.38;5306868;26;22586;-88
2023/11/14 01:42:15;;;;;;;0.62;0.62;;;;;;;11.54;59.82;99029.31;5327331;26;20154;-88
2023/11/14 01:44:40;;;;;;;3.22;0.95;;;;;;;11.27;59.80;99021.88;5307630;26;20992;-88
2023/11/14 01:47:05;;;;;;;3.05;1.95;;;;;;;11.42;59.81;99009.06;5307232;26;20052;-88
2023/11/14 01:49:31;;;;;;;0.52;0.52;;;;;;;11.32;59.81;98998.19;5306097;26;27015;-89
2023/11/14 01:51:57;;;;;;;0.55;0.55;;;;;;;11.48;59.81;99003.53;5306642;26;27767;-89
2023/11/14 01:54:22;;;;;;;0.73;0.73;;;;;;;11.59;59.82;98990.81;5326157;26;20059;-89
2023/11/14 01:56:48;;;;;;;0.10;0.10;;;;;;;11.66;59.82;99000.91;5307153;26;20052;-89
2023/11/14 01:59:13;;;;;;;0.57;0.55;;;;;;;11.75;59.83;99004.81;5305092;26;23251;-88
2023/11/14 02:01:38;;;;;;;0.47;0.47;;;;;;;11.63;59.82;98976.75;5323782;26;26840;-88
2023/11/14 02:04:14;;;;;;;0.05;0.05;;;;;;;11.66;59.82;98994.84;5308274;26;20056;-89
2023/11/14 02:06:39;;;;;;;1.05;0.95;;;;;;;11.64;59.82;98991.47;5288520;26;20427;-88
2023/11/14 02:09:08;;;;;;;0.10;0.10;;;;;;;11.69;59.82;98986.87;5306643;26;20063;-87
2023/11/14 02:11:34;;;;;;;0.40;0.40;;;;;;;11.79;59.83;98995.97;5307470;26;20060;-88
2023/11/14 02:14:00;;;;;;;0.65;0.65;;;;;;;11.93;59.84;98987.47;5307340;26;20338;-87
2023/11/14 02:16:26;;;;;;;0.05;0.05;;;;;;;11.82;59.83;98979.31;5307266;26;20110;-88
2023/11/14 02:18:53;;;;;;;1.45;1.23;;;;;;;11.62;59.82;98972.47;5306898;26;20075;-88
2023/11/14 02:21:20;;;;;;;0.57;0.57;;;;;;;11.80;59.82;98961.12;5307143;26;20061;-88
2023/11/14 02:23:45;;;;;;;3.03;1.15;;;;;;;11.61;59.82;98974.22;5307324;26;20064;-88
2023/11/14 02:26:11;;;;;;;0.90;0.90;;;;;;;11.77;59.83;98981.28;5325806;26;20079;-89
2023/11/14 02:28:36;;;;;;;1.98;1.87;;;;;;;11.65;59.82;98970.53;5307897;26;20068;-87
2023/11/14 02:31:02;;;;;;;0.68;0.68;;;;;;;11.60;59.81;98972.53;5318357;26;20111;-88
2023/11/14 02:33:27;;;;;;;0.20;0.20;;;;;;;11.73;59.82;98964.94;5299381;27;28978;-88
2023/11/14 02:35:52;;;;;;;0.52;0.52;;;;;;;11.93;59.84;98957.00;5299562;27;35329;-88
2023/11/14 02:38:18;;;;;;;2.28;0.57;;;;;;;11.83;59.83;98947.09;5302180;27;28436;-87
2023/11/14 02:40:49;;;;;;;1.55;1.33;;;;;;;11.98;59.84;98939.38;5299663;27;20123;-88
2023/11/14 02:43:14;;;;;;;1.75;1.65;;;;;;;12.28;59.85;98964.81;5281639;27;20109;-88
2023/11/14 02:45:42;;;;;;;0.88;0.88;;;;;;;12.23;59.85;98964.19;5298931;27;27155;-88
2023/11/14 02:48:08;;;;;;;0.88;0.88;;;;;;;12.16;59.85;98963.69;5281833;27;20049;-89
2023/11/14 02:50:50;;;;;;;0.22;0.22;;;;;;;11.77;59.83;98966.47;5299703;27;20399;-88
2023/11/14 02:53:16;;;;;;;0.20;0.20;;;;;;;12.17;59.85;98974.97;5299709;27;20119;-88
2023/11/14 02:55:43;;;;;;;0.43;0.43;;;;;;;11.89;59.83;98978.13;5299834;27;20107;-88
2023/11/14 02:58:10;;;;;;;1.73;1.05;;;;;;;11.84;59.84;98974.91;5299745;27;20053;-88
2023/11/14 03:00:36;;;;;;;0.10;0.10;;;;;;;12.05;59.84;98968.59;5302055;27;20410;-88
2023/11/14 03:03:01;;;;;;;3.65;1.50;;;;;;;12.15;59.85;98979.41;5298805;27;22677;-87
2023/11/14 03:05:27;;;;;;;1.37;1.27;;;;;;;11.92;59.84;98984.03;5298813;27;20049;-87
2023/11/14 03:07:52;;;;;;;0.20;0.20;;;;;;;11.84;59.84;99004.44;5298628;27;20053;-88
2023/11/14 03:10:18;;;;;;;0.52;0.52;;;;;;;11.89;59.83;99033.72;5298575;27;20072;-87
2023/11/14 03:12:43;;;;;;;0.20;0.20;;;;;;;11.88;59.83;99013.78;5299310;27;20073;-86
2023/11/14 03:15:09;;;;;;;0.50;0.37;;;;;;;11.82;59.82;98987.13;5299029;27;20093;-86
2023/11/14 03:17:35;;;;;;;1.00;0.65;;;;;;;12.28;59.85;98983.06;5299611;27;20095;-87
2023/11/14 03:20:00;;;;;;;0.00;0.00;;;;;;;12.43;59.86;98986.66;5281854;27;20077;-88
2023/11/14 03:22:27;;;;;;;0.68;0.68;;;;;;;12.21;59.86;98999.97;5280674;27;23254;-87
2023/11/14 03:24:52;;;;;;;1.33;1.25;;;;;;;12.13;59.84;99000.38;5299126;27;20066;-88
2023/11/14 03:27:19;;;;;;;0.47;0.47;;;;;;;12.05;59.84;98981.63;5299248;27;20160;-88
2023/11/14 03:29:44;;;;;;;1.58;1.08;;;;;;;11.94;59.83;98971.75;5300585;26;20079;-87
2023/11/14 03:32:10;;;;;;;0.73;0.47;;;;;;;12.06;59.84;98972.87;5306440;26;20087;-88
2023/11/14 03:34:35;;;;;;;0.22;0.22;;;;;;;12.17;59.85;98967.13;5305607;26;34566;-88
2023/11/14 03:37:01;;;;;;;0.10;0.10;;;;;;;12.06;59.85;98948.56;5324957;26;20356;-87
2023/11/14 03:39:28;;;;;;;0.43;0.43;;;;;;;12.14;59.85;98941.22;5306486;26;30187;-87
2023/11/14 03:41:55;;;;;;;0.37;0.37;;;;;;;12.17;59.85;98947.09;5306386;26;20056;-87
2023/11/14 03:44:20;;;;;;;1.00;0.37;;;;;;;12.03;59.84;98939.13;5306502;26;20052;-87
2023/11/14 03:46:45;;;;;;;0.30;0.30;;;;;;;12.04;59.84;98955.63;5324844;26;20602;-87
2023/11/14 03:49:11;;;;;;;0.13;0.13;;;;;;;11.94;59.84;98953.50;5324346;26;20067;-87
2023/11/14 03:51:36;;;;;;;1.02;0.60;;;;;;;11.89;59.83;98967.69;5305422;26;28671;-87
2023/11/14 03:54:02;;;;;;;0.47;0.47;;;;;;;12.05;59.84;98983.38;5324701;26;20144;-88
2023/11/14 03:56:28;;;;;;;1.20;1.00;;;;;;;11.89;59.83;98984.19;5324895;26;20048;-88
2023/11/14 03:58:53;;;;;;;0.43;0.43;;;;;;;12.10;59.85;98974.44;5325229;26;20058;-86
2023/11/14 04:01:19;;;;;;;0.00;0.00;;;;;;;12.03;59.84;98973.03;5324960;26;20059;-86
2023/11/14 04:03:44;;;;;;;0.40;0.32;;;;;;;11.90;59.84;98970.22;5314709;26;28722;-87
2023/11/14 04:06:10;;;;;;;5.47;0.85;;;;;;;11.87;59.83;98985.16;5310623;26;28082;-87
2023/11/14 04:08:36;;;;;;;1.20;1.15;;;;;;;11.90;59.83;98979.81;5289480;26;20060;-88
2023/11/14 04:11:02;;;;;;;2.00;0.85;;;;;;;11.79;59.83;98987.28;5308147;26;20111;-88
2023/11/14 04:13:27;;;;;;;0.20;0.20;;;;;;;11.79;59.83;98985.53;5306610;26;20071;-88
2023/11/14 04:15:53;;;;;;;0.57;0.57;;;;;;;12.01;59.84;99000.13;5324114;26;20071;-88
2023/11/14 04:18:18;;;;;;;4.40;2.12;;;;;;;11.93;59.83;98996.13;5306070;26;20113;-88
2023/11/14 04:20:43;;;;;;;0.25;0.25;;;;;;;11.85;59.83;98995.69;5305817;26;20370;-86
2023/11/14 04:23:09;;;;;;;2.30;0.68;;;;;;;11.86;59.83;99002.59;5306059;26;20060;-87
2023/11/14 04:25:34;;;;;;;0.30;0.30;;;;;;;11.87;59.83;98986.00;5324948;26;31527;-88
2023/11/14 04:28:00;;;;;;;0.30;0.30;;;;;;;11.87;59.83;98985.16;5307115;26;20068;-87
2023/11/14 04:30:25;;;;;;;6.65;1.25;;;;;;;12.04;59.84;98994.75;5317775;27;29384;-88
2023/11/14 04:32:51;;;;;;;8.80;2.95;;;;;;;11.91;59.84;98997.13;5299830;27;20315;-88
2023/11/14 04:35:16;;;;;;;0.15;0.15;;;;;;;11.95;59.84;99004.72;5304626;27;20061;-88
2023/11/14 04:37:41;;;;;;;0.30;0.30;;;;;;;11.92;59.84;99017.06;5281051;27;31452;-88
2023/11/14 04:40:09;;;;;;;2.22;1.23;;;;;;;11.88;59.83;99005.13;5300136;27;20399;-88
2023/11/14 04:42:34;;;;;;;0.85;0.82;;;;;;;12.05;59.84;98991.22;5281858;27;20061;-88
2023/11/14 04:45:00;;;;;;;1.62;0.98;;;;;;;11.89;59.83;98978.97;5299274;27;27231;-87
2023/11/14 04:47:25;;;;;;;0.45;0.45;;;;;;;11.87;59.83;98987.78;5299947;27;20072;-88
2023/11/14 04:49:52;;;;;;;0.55;0.55;;;;;;;11.96;59.84;98995.13;5299993;27;20059;-87
2023/11/14 04:52:17;;;;;;;2.78;1.10;;;;;;;12.02;59.84;99020.06;5299967;27;20041;-87
2023/11/14 04:54:42;;;;;;;0.95;0.93;;;;;;;12.07;59.85;99034.59;5299453;27;26296;-86
2023/11/14 04:57:08;;;;;;;0.57;0.57;;;;;;;12.39;59.86;99024.28;5282543;27;20084;-87
2023/11/14 04:59:33;;;;;;;0.10;0.10;;;;;;;12.39;59.86;99027.75;5299459;27;28737;-88
2023/11/14 05:01:58;;;;;;;0.30;0.30;;;;;;;12.37;59.86;99037.44;5299567;27;20099;-87
2023/11/14 05:04:24;;;;;;;0.10;0.10;;;;;;;12.54;59.87;99026.13;5280405;27;28307;-87
2023/11/14 05:06:49;;;;;;;0.05;0.05;;;;;;;12.41;59.86;99046.78;5299561;27;23456;-89
2023/11/14 05:09:15;;;;;;;0.15;0.15;;;;;;;12.58;59.86;99046.78;5282513;27;20083;-89
2023/11/14 05:11:41;;;;;;;0.62;0.60;;;;;;;12.56;59.87;99051.22;5300284;27;20356;-88
2023/11/14 05:14:06;;;;;;;0.55;0.55;;;;;;;12.86;59.88;99061.84;5281524;27;20723;-87
2023/11/14 05:16:39;;;;;;;1.45;1.35;;;;;;;12.77;59.88;99062.31;5303650;27;20076;-89
2023/11/14 05:19:06;;;;;;;0.17;0.17;;;;;;;12.79;59.88;99057.88;5300680;27;20111;-89
2023/11/14 05:21:31;;;;;;;0.22;0.22;;;;;;;12.96;59.89;99069.19;5299938;27;20058;-87
2023/11/14 05:23:57;;;;;;;0.37;0.37;;;;;;;13.04;59.90;99065.28;5299741;27;20409;-88
2023/11/14 05:26:22;;;;;;;5.50;2.67;;;;;;;13.08;59.90;99060.72;5299515;27;32174;-88
2023/11/14 05:28:49;;;;;;;0.10;0.10;;;;;;;13.09;59.90;99062.41;5300161;27;20077;-88
2023/11/14 05:31:15;;;;;;;0.30;0.20;;;;;;;12.77;59.88;99053.63;5314249;26;20136;-88
2023/11/14 05:33:40;;;;;;;0.00;0.00;;;;;;;12.73;59.88;99052.12;5303892;27;20107;-88
2023/11/14 05:36:06;;;;;;;0.20;0.20;;;;;;;12.74;59.88;99057.25;5285843;27;20071;-90
2023/11/14 05:38:32;;;;;;;0.08;0.08;;;;;;;12.88;59.89;99061.78;5287468;27;20162;-89
2023/11/14 05:40:58;;;;;;;0.73;0.73;;;;;;;12.97;59.89;99074.34;5305016;27;20326;-90
2023/11/14 05:43:24;;;;;;;0.62;0.62;;;;;;;12.92;59.89;99078.97;5286002;27;25815;-88
2023/11/14 05:45:50;;;;;;;0.65;0.35;;;;;;;12.86;59.88;99084.53;5305609;27;20065;-89
2023/11/14 05:48:19;;;;;;;1.20;1.12;;;;;;;12.82;59.89;99075.16;5288263;27;20060;-89
2023/11/14 05:50:45;;;;;;;3.62;0.85;;;;;;;12.81;59.88;99087.37;5289338;27;20045;-89
2023/11/14 05:53:10;;;;;;;0.00;0.00;;;;;;;12.70;59.87;99088.84;5286165;27;20068;-89
2023/11/14 05:55:36;;;;;;;0.08;0.08;;;;;;;12.86;59.88;99080.13;5285622;27;20081;-89
2023/11/14 05:58:02;;;;;;;0.30;0.20;;;;;;;12.79;59.88;99088.38;5285696;27;20138;-89
2023/11/14 06:00:27;;;;;;;0.00;0.00;;;;;;;12.88;59.90;99083.50;5302851;27;35319;-87
2023/11/14 06:02:52;;;;;;;1.30;0.62;;;;;;;12.85;59.88;99088.91;5286160;27;20052;-89
2023/11/14 06:05:18;;;;;;;0.05;0.05;;;;;;;12.80;59.88;99090.06;5286287;27;20084;-89
2023/11/14 06:07:43;;;;;;;0.17;0.17;;;;;;;12.87;59.89;99096.66;5287137;27;20098;-88
2023/11/14 06:10:10;;;;;;;0.98;0.88;;;;;;;13.10;59.89;99096.31;5285959;27;20056;-89
2023/11/14 06:12:39;;;;;;;0.32;0.32;;;;;;;13.02;59.89;99095.03;5291516;27;20053;-89
2023/11/14 06:15:08;;;;;;;0.28;0.28;;;;;;;12.89;59.88;99076.53;5287033;27;20182;-89
2023/11/14 06:17:34;;;;;;;0.00;0.00;;;;;;;13.11;59.90;99084.06;5304756;27;20217;-89
2023/11/14 06:19:59;;;;;;;0.10;0.10;;;;;;;13.19;59.91;99082.75;5285629;27;20076;-89
2023/11/14 06:22:25;;;;;;;0.30;0.20;;;;;;;13.23;59.90;99064.31;5284740;27;32816;-89
2023/11/14 06:24:50;;;;;;;0.75;0.75;;;;;;;13.03;59.89;99057.53;5284677;27;33582;-89
2023/11/14 06:27:15;;;;;;;0.65;0.65;;;;;;;13.35;59.91;99050.59;5285359;27;20071;-88
2023/11/14 06:29:42;;;;;;;7.78;0.88;;;;;;;13.10;59.89;99054.50;5285254;26;20598;-87
2023/11/14 06:32:07;;;;;;;0.00;0.00;;;;;;;13.09;59.90;99042.34;5289753;26;20063;-89
2023/11/14 06:34:33;;;;;;;0.15;0.15;;;;;;;13.14;59.90;99037.72;5307188;26;20104;-88
2023/11/14 06:36:58;;;;;;;0.57;0.30;;;;;;;13.23;59.90;99023.34;5307245;26;20101;-89
2023/11/14 06:39:24;;;;;;;0.10;0.10;;;;;;;13.27;59.90;99031.88;5325599;26;20083;-89
2023/11/14 06:41:50;;;;;;;0.68;0.68;;;;;;;13.51;59.92;99044.44;5307408;26;20059;-89
2023/11/14 06:44:15;;;;;;;0.25;0.20;;;;;;;13.60;59.92;99066.62;5289091;26;20056;-89
2023/11/14 06:46:40;;;;;;;1.95;0.57;;;;;;;13.57;59.92;99079.03;5324938;26;20060;-90
2023/11/14 06:49:06;;;;;;;0.22;0.22;;;;;;;13.48;59.92;99091.66;5325145;26;31210;-90
2023/11/14 06:51:31;;;;;;;0.37;0.20;;;;;;;13.46;59.92;99101.34;5307159;26;26272;-88
2023/11/14 06:53:57;;;;;;;0.13;0.13;;;;;;;13.54;59.92;99098.34;5307861;26;31533;-89
2023/11/14 06:56:22;;;;;;;0.20;0.20;;;;;;;13.63;59.92;99078.69;5306520;26;20215;-89
2023/11/14 06:58:47;;;;;;;0.28;0.28;;;;;;;13.48;59.91;99077.72;5306766;26;20052;-89
2023/11/14 07:01:13;;;;;;;0.60;0.60;;;;;;;13.49;59.92;99074.22;5305896;26;31532;-89
2023/11/14 07:03:39;;;;;;;0.30;0.30;;;;;;;13.54;59.92;99080.03;5306695;26;20114;-89
2023/11/14 07:06:05;;;;;;;0.35;0.35;;;;;;;13.58;59.93;99086.78;5306636;26;20069;-89
2023/11/14 07:08:30;;;;;;;0.82;0.75;;;;;;;13.65;59.92;99089.91;5306933;26;20101;-89
2023/11/14 07:10:57;;;;;;;0.15;0.15;;;;;;;13.69;59.93;99084.41;5306961;26;20111;-89
2023/11/14 07:13:23;;;;;;;0.32;0.32;;;;;;;13.71;59.93;99051.16;5306930;26;20429;-89
2023/11/14 07:15:48;;;;;;;2.03;1.92;;;;;;;13.94;59.94;99051.62;5307103;26;20106;-89
2023/11/14 07:18:13;;;;;;;1.15;0.90;;;;;;;13.89;59.94;99054.53;5326618;26;20333;-89
2023/11/14 07:20:39;;;;;;;0.20;0.20;;;;;;;14.03;59.95;99051.97;5309251;26;20052;-89
2023/11/14 07:23:04;;;;;;;0.30;0.30;;;;;;;14.08;59.95;99049.09;5313244;26;20060;-87
2023/11/14 07:25:34;;;;;;;0.35;0.35;;;;;;;14.12;59.95;99055.84;5321706;26;20071;-89
2023/11/14 07:27:59;;;;;;;0.80;0.55;;;;;;;14.29;59.96;99054.88;5317271;26;20064;-89
2023/11/14 07:30:26;;;;;;;0.00;0.00;;;;;;;14.38;59.96;99052.53;5325328;26;20314;-89
2023/11/14 07:32:51;;;;;;;0.00;0.00;;;;;;;14.51;59.97;99059.72;5325442;26;20123;-89
2023/11/14 07:35:21;;;;;;;0.30;0.30;;;;;;;14.64;59.98;99045.78;5306863;26;20067;-88
2023/11/14 07:37:46;;;;;;;0.57;0.40;;;;;;;14.64;59.98;99037.09;5307875;26;20052;-89
2023/11/14 07:40:12;;;;;;;0.28;0.25;;;;;;;14.87;60.00;99057.50;5306644;26;20424;-89
2023/11/14 07:42:38;;;;;;;0.55;0.20;;;;;;;15.20;60.01;99059.03;5325523;26;20025;-88
2023/11/14 07:45:06;;;;;;;1.02;0.95;;;;;;;15.21;60.01;99051.06;5306721;26;20079;-89
2023/11/14 07:47:32;;;;;;;0.62;0.62;;;;;;;15.18;60.01;99056.50;5289237;26;20440;-88
2023/11/14 07:49:57;;;;;;;0.37;0.37;;;;;;;15.05;60.00;99061.63;5309769;26;20053;-89
2023/11/14 07:52:22;;;;;;;0.00;0.00;;;;;;;15.02;60.00;99074.94;5305990;26;29632;-88
2023/11/14 07:54:49;;;;;;;0.37;0.22;;;;;;;14.96;60.00;99084.97;5306684;26;20056;-87
2023/11/14 07:57:15;;;;;;;0.00;0.00;;;;;;;15.23;60.01;99071.94;5306728;26;20052;-87
2023/11/14 07:59:41;;;;;;;0.60;0.60;;;;;;;15.34;60.02;99082.59;5326629;26;20432;-89
2023/11/14 08:02:06;;;;;;;0.20;0.20;;;;;;;15.44;60.02;99070.59;5307544;26;20076;-88
2023/11/14 08:04:32;;;;;;;0.10;0.10;;;;;;;15.36;60.02;99092.03;5307450;26;20080;-88
2023/11/14 08:06:57;;;;;;;0.40;0.35;;;;;;;15.39;60.01;99101.53;5306926;26;28855;-87
2023/11/14 08:09:22;;;;;;;0.10;0.10;;;;;;;15.40;60.03;99115.47;5328632;26;20072;-88
2023/11/14 08:11:48;;;;;;;0.47;0.47;;;;;;;15.25;60.02;99131.22;5306416;26;32293;-87
2023/11/14 08:14:14;;;;;;;0.10;0.10;;;;;;;15.34;60.02;99119.31;5307316;26;20076;-88
2023/11/14 08:16:40;;;;;;;0.00;0.00;;;;;;;15.48;60.03;99127.16;5307233;26;20048;-88
2023/11/14 08:19:05;;;;;;;0.10;0.10;;;;;;;15.27;60.01;99125.88;5307173;26;20153;-88
2023/11/14 08:21:31;;;;;;;0.00;0.00;;;;;;;15.29;60.01;99135.31;5325271;26;26620;-88
2023/11/14 08:23:56;;;;;;;0.60;0.32;;;;;;;15.24;60.01;99157.53;5307221;26;20084;-88
2023/11/14 08:26:22;;;;;;;0.10;0.10;;;;;;;15.31;60.01;99162.28;5325989;26;20394;-88
2023/11/14 08:28:48;;;;;;;0.30;0.30;;;;;;;15.14;60.00;99148.50;5307889;26;20110;-88
2023/11/14 08:31:14;;;;;;;0.35;0.35;;;;;;;15.10;60.01;99131.28;5308587;26;20443;-88
2023/11/14 08:33:42;;;;;;;0.30;0.30;;;;;;;15.11;60.01;99122.47;5307812;26;20067;-88
2023/11/14 08:36:07;;;;;;;0.28;0.20;;;;;;;15.18;60.01;99116.78;5307101;26;20052;-89
2023/11/14 08:38:34;;;;;;;0.10;0.10;;;;;;;15.25;60.01;99114.63;5306778;26;20087;-89
2023/11/14 08:41:01;;;;;;;0.00;0.00;;;;;;;15.16;60.00;99123.91;5307195;26;20060;-89
2023/11/14 08:43:27;;;;;;;0.00;0.00;;;;;;;15.21;60.01;99129.72;5307332;26;20117;-89
2023/11/14 08:45:52;;;;;;;0.10;0.10;;;;;;;15.16;60.00;99139.66;5325392;26;20099;-89
2023/11/14 08:48:18;;;;;;;0.10;0.10;;;;;;;15.21;60.01;99153.31;5306005;26;34622;-89
2023/11/14 08:50:43;;;;;;;0.52;0.50;;;;;;;15.18;60.01;99160.53;5307105;26;20432;-89
2023/11/14 08:53:09;;;;;;;0.00;0.00;;;;;;;15.16;60.00;99162.41;5326079;26;20385;-89
2023/11/14 08:55:34;;;;;;;0.00;0.00;;;;;;;15.12;60.01;99166.94;5308787;26;20074;-88
2023/11/14 08:57:59;;;;;;;0.00;0.00;;;;;;;14.92;59.99;99185.66;5308482;26;34317;-88
2023/11/14 09:00:26;;;;;;;0.25;0.20;;;;;;;14.77;59.99;99192.63;5327544;26;34544;-89
2023/11/14 09:02:51;;;;;;;0.50;0.37;;;;;;;14.81;59.99;99188.91;5317261;26;20025;-89
2023/11/14 09:05:17;;;;;;;0.40;0.20;;;;;;;14.87;60.00;99217.34;5317590;26;20392;-89
2023/11/14 09:07:42;;;;;;;0.13;0.13;;;;;;;14.72;59.99;99210.41;5306975;26;20103;-89
2023/11/14 09:10:08;;;;;;;0.22;0.22;;;;;;;14.78;59.98;99210.03;5306486;26;20072;-89
2023/11/14 09:12:33;;;;;;;0.00;0.00;;;;;;;14.90;59.99;99201.44;5325581;26;20053;-88
2023/11/14 09:15:00;;;;;;;0.00;0.00;;;;;;;14.82;59.99;99211.53;5307115;26;20056;-90
2023/11/14 09:17:25;;;;;;;0.00;0.00;;;;;;;14.76;59.98;99227.62;5288585;26;20063;-89
2023/11/14 09:19:52;;;;;;;0.10;0.10;;;;;;;14.88;59.99;99216.41;5324875;26;23918;-88
2023/11/14 09:22:18;;;;;;;0.00;0.00;;;;;;;14.84;59.99;99228.00;5307397;26;20151;-88
2023/11/14 09:24:44;;;;;;;0.00;0.00;;;;;;;14.92;59.99;99238.06;5307147;26;20048;-89
2023/11/14 09:27:11;;;;;;;0.00;0.00;;;;;;;14.84;59.99;99243.72;5309742;26;20118;-88
2023/11/14 09:29:36;;;;;;;0.00;0.00;;;;;;;14.80;59.99;99234.38;5306912;26;20064;-88
2023/11/14 09:32:04;;;;;;;6.60;1.98;;;;;;;14.74;59.98;99240.81;5325218;26;20080;-88
2023/11/14 09:34:30;;;;;;;0.62;0.32;;;;;;;14.68;59.99;99256.03;5306758;26;20082;-88
2023/11/14 09:36:56;;;;;;;0.10;0.10;;;;;;;14.78;59.98;99238.84;5307099;26;20398;-89
2023/11/14 09:39:22;;;;;;;0.00;0.00;;;;;;;14.80;59.99;99247.47;5289349;26;20186;-88
2023/11/14 09:41:47;;;;;;;0.00;0.00;;;;;;;14.80;59.99;99247.47;5324729;26;27025;-89
2023/11/14 09:44:13;;;;;;;1.23;1.12;;;;;;;14.88;59.99;99245.25;5306729;26;20087;-88
2023/11/14 09:46:38;;;;;;;0.00;0.00;;;;;;;14.89;60.00;99253.94;5289717;26;20053;-88
2023/11/14 09:49:04;;;;;;;0.00;0.00;;;;;;;14.91;59.99;99233.75;5306216;26;20087;-88
2023/11/14 09:51:31;;;;;;;0.00;0.00;;;;;;;14.83;59.99;99234.19;5306709;26;20125;-88
2023/11/14 09:53:56;;;;;;;0.00;0.00;;;;;;;14.83;59.99;99222.87;5306914;26;20082;-89
2023/11/14 09:56:22;;;;;;;1.45;0.30;;;;;;;14.77;59.98;99202.25;5306730;26;20052;-88
2023/11/14 09:58:51;;;;;;;0.88;0.85;;;;;;;14.80;59.99;99187.19;5306327;26;20056;-89
2023/11/14 10:01:16;;;;;;;0.00;0.00;;;;;;;14.84;59.99;99196.56;5288900;26;20082;-88
2023/11/14 10:03:42;;;;;;;0.75;0.30;;;;;;;14.78;59.98;99193.47;5324277;26;30350;-89
2023/11/14 10:06:08;;;;;;;0.00;0.00;;;;;;;14.77;59.99;99200.50;5306603;26;20084;-89
2023/11/14 10:08:34;;;;;;;0.15;0.10;;;;;;;14.77;59.99;99197.88;5309419;26;20036;-88
2023/11/14 10:11:09;;;;;;;4.12;1.75;;;;;;;14.77;59.98;99202.25;5310456;26;20057;-88
2023/11/14 10:13:36;;;;;;;0.22;0.22;;;;;;;14.80;59.99;99216.03;5335710;26;20035;-88
2023/11/14 10:16:38;;;;;;;0.00;0.00;;;;;;;14.80;59.99;99215.19;5305072;26;20025;-87
2023/11/14 10:19:14;;;;;;;0.30;0.20;;;;;;;14.86;59.99;99220.91;5332433;26;20074;-88
2023/11/14 10:21:39;;;;;;;0.00;0.00;;;;;;;14.80;59.99;99216.03;5290616;26;20060;-89
2023/11/14 10:24:12;;;;;;;0.00;0.00;;;;;;;14.57;59.98;99212.09;5306937;26;20362;-89
2023/11/14 10:26:53;;;;;;;0.50;0.28;;;;;;;14.57;59.98;99226.97;5325466;26;20050;-89
2023/11/14 10:29:22;;;;;;;0.00;0.00;;;;;;;14.66;59.98;99231.69;5290364;26;20064;-88
2023/11/14 10:31:48;;;;;;;0.00;0.00;;;;;;;14.53;59.97;99217.59;5280914;27;20112;-89
2023/11/14 10:34:27;;;;;;;0.10;0.10;;;;;;;14.46;59.97;99214.50;5299501;27;20148;-89
2023/11/14 10:36:54;;;;;;;0.00;0.00;;;;;;;14.69;59.98;99202.72;5299891;27;20110;-89
2023/11/14 10:39:20;;;;;;;0.35;0.35;;;;;;;14.76;59.98;99188.31;5299259;27;20075;-88
2023/11/14 10:41:45;;;;;;;0.00;0.00;;;;;;;14.99;60.00;99184.34;5299587;27;20057;-89
2023/11/14 10:44:14;;;;;;;0.00;0.00;;;;;;;14.95;60.00;99181.06;5282004;27;20316;-88
2023/11/14 10:46:48;;;;;;;1.20;0.63;;;;;;;15.20;60.01;99177.84;5299577;27;20045;-89
2023/11/14 10:49:13;;;;;;;0.00;0.00;;;;;;;15.23;60.01;99172.41;5299836;27;20084;-88
2023/11/14 10:51:39;;;;;;;1.95;0.32;;;;;;;15.24;60.01;99168.00;5299171;27;20057;-88
2023/11/14 10:54:06;;;;;;;0.00;0.00;;;;;;;15.23;60.01;99172.41;5298506;27;25593;-88
2023/11/14 10:56:36;;;;;;;0.28;0.28;;;;;;;15.35;60.02;99190.00;5299411;27;20060;-88
2023/11/14 10:59:07;;;;;;;0.15;0.15;;;;;;;15.34;60.02;99177.00;5299772;27;20069;-88
2023/11/14 11:01:33;;;;;;;0.00;0.00;;;;;;;15.49;60.03;99160.34;5299835;27;20061;-88
2023/11/14 11:03:58;;;;;;;0.00;0.00;;;;;;;15.51;60.02;99171.56;5281669;27;20061;-88
2023/11/14 11:06:26;;;;;;;0.40;0.35;;;;;;;15.44;60.03;99165.03;5299073;27;20383;-88
2023/11/14 11:08:53;;;;;;;0.00;0.00;;;;;;;15.35;60.02;99173.44;5281072;27;20057;-88
2023/11/14 11:11:19;;;;;;;0.00;0.00;;;;;;;15.54;60.02;99160.03;5299174;27;20061;-88
2023/11/14 11:13:46;;;;;;;0.00;0.00;;;;;;;15.31;60.01;99167.53;5299140;27;20426;-89
2023/11/14 11:16:12;;;;;;;0.00;0.00;;;;;;;15.05;60.01;99163.84;5298899;27;20064;-87
2023/11/14 11:18:38;;;;;;;0.20;0.20;;;;;;;14.96;60.00;99155.72;5297984;27;25768;-88
2023/11/14 11:21:11;;;;;;;0.10;0.10;;;;;;;14.95;60.00;99149.63;5280832;27;20065;-88
2023/11/14 11:24:05;;;;;;;0.00;0.00;;;;;;;15.15;60.00;99147.59;5299238;27;20522;-88
2023/11/14 11:26:31;;;;;;;0.00;0.00;;;;;;;15.14;60.01;99162.50;5302847;27;20079;-88
2023/11/14 11:28:56;;;;;;;0.10;0.10;;;;;;;15.11;60.01;99159.19;5299718;27;23637;-88